sensor_id;sensor_type;location;lat;lon;timestamp;temperature;humidity
22765;DHT22;11549;50.852;3.816;2022-08-19T00:01:54;20.50;99.90
22765;DHT22;11549;50.852;3.816;2022-08-19T00:04:28;20.40;99.90
22765;DHT22;11549;50.852;3.816;2022-08-19T00:06:58;20.40;99.90
22765;DHT22;11549;50.852;3.816;2022-08-19T00:09:27;20.30;99.90
22765;DHT22;11549;50.852;3.816;2022-08-19T00:11:57;20.20;99.90
22765;DHT22;11549;50.852;3.816;2022-08-19T00:14:26;20.20;99.90
22765;DHT22;11549;50.852;3.816;2022-08-19T00:16:57;20.20;99.90
22765;DHT22;11549;50.852;3.816;2022-08-19T00:19:27;20.20;99.90
22765;DHT22;11549;50.852;3.816;2022-08-19T00:21:55;20.20;99.90
22765;DHT22;11549;50.852;3.816;2022-08-19T00:24:24;20.10;99.90
22765;DHT22;11549;50.852;3.816;2022-08-19T00:26:52;20.10;99.90
22765;DHT22;11549;50.852;3.816;2022-08-19T00:29:23;20.10;99.90
22765;DHT22;11549;50.852;3.816;2022-08-19T00:31:52;20.10;99.90
22765;DHT22;11549;50.852;3.816;2022-08-19T00:34:22;20.10;99.90
22765;DHT22;11549;50.852;3.816;2022-08-19T00:36:51;20.00;99.90
22765;DHT22;11549;50.852;3.816;2022-08-19T00:39:20;20.00;99.90
22765;DHT22;11549;50.852;3.816;2022-08-19T00:41:49;20.00;99.90
22765;DHT22;11549;50.852;3.816;2022-08-19T00:44:20;20.00;99.90
22765;DHT22;11549;50.852;3.816;2022-08-19T00:46:54;20.00;99.90
22765;DHT22;11549;50.852;3.816;2022-08-19T00:49:27;20.00;99.90
22765;DHT22;11549;50.852;3.816;2022-08-19T00:52:02;20.00;99.90
22765;DHT22;11549;50.852;3.816;2022-08-19T00:54:31;20.00;99.90
22765;DHT22;11549;50.852;3.816;2022-08-19T00:57:01;20.00;99.90
22765;DHT22;11549;50.852;3.816;2022-08-19T00:59:34;20.00;99.90
22765;DHT22;11549;50.852;3.816;2022-08-19T01:02:23;20.00;99.90
22765;DHT22;11549;50.852;3.816;2022-08-19T01:04:52;20.10;99.90
22765;DHT22;11549;50.852;3.816;2022-08-19T01:07:22;20.10;99.90
22765;DHT22;11549;50.852;3.816;2022-08-19T01:09:50;20.10;99.90
22765;DHT22;11549;50.852;3.816;2022-08-19T01:12:19;20.00;99.90
22765;DHT22;11549;50.852;3.816;2022-08-19T01:14:49;20.10;99.90
22765;DHT22;11549;50.852;3.816;2022-08-19T01:17:19;20.20;99.90
22765;DHT22;11549;50.852;3.816;2022-08-19T01:19:48;20.10;99.90
22765;DHT22;11549;50.852;3.816;2022-08-19T01:22:25;20.00;99.90
22765;DHT22;11549;50.852;3.816;2022-08-19T01:25:00;20.00;99.90
22765;DHT22;11549;50.852;3.816;2022-08-19T01:27:37;19.90;99.90
22765;DHT22;11549;50.852;3.816;2022-08-19T01:30:11;19.80;99.90
22765;DHT22;11549;50.852;3.816;2022-08-19T01:32:39;19.80;99.90
22765;DHT22;11549;50.852;3.816;2022-08-19T01:35:08;19.70;99.90
22765;DHT22;11549;50.852;3.816;2022-08-19T01:37:48;19.60;99.90
22765;DHT22;11549;50.852;3.816;2022-08-19T01:40:20;19.70;99.90
22765;DHT22;11549;50.852;3.816;2022-08-19T01:42:49;19.60;99.90
22765;DHT22;11549;50.852;3.816;2022-08-19T01:45:18;19.60;99.90
22765;DHT22;11549;50.852;3.816;2022-08-19T01:47:47;19.70;99.90
22765;DHT22;11549;50.852;3.816;2022-08-19T01:50:27;19.60;99.90
22765;DHT22;11549;50.852;3.816;2022-08-19T01:52:57;19.60;99.90
22765;DHT22;11549;50.852;3.816;2022-08-19T01:55:33;19.60;99.90
22765;DHT22;11549;50.852;3.816;2022-08-19T01:58:08;19.50;99.90
22765;DHT22;11549;50.852;3.816;2022-08-19T02:00:38;19.50;99.90
22765;DHT22;11549;50.852;3.816;2022-08-19T02:03:07;19.50;99.90
22765;DHT22;11549;50.852;3.816;2022-08-19T02:05:35;19.50;99.90
22765;DHT22;11549;50.852;3.816;2022-08-19T02:08:05;19.50;99.90
22765;DHT22;11549;50.852;3.816;2022-08-19T02:10:38;19.50;99.90
22765;DHT22;11549;50.852;3.816;2022-08-19T02:13:07;19.50;99.90
22765;DHT22;11549;50.852;3.816;2022-08-19T02:15:36;19.60;99.90
22765;DHT22;11549;50.852;3.816;2022-08-19T02:18:05;19.50;99.90
22765;DHT22;11549;50.852;3.816;2022-08-19T02:20:34;19.40;99.90
22765;DHT22;11549;50.852;3.816;2022-08-19T02:23:03;19.20;99.90
22765;DHT22;11549;50.852;3.816;2022-08-19T02:25:40;19.10;99.90
22765;DHT22;11549;50.852;3.816;2022-08-19T02:28:09;19.20;99.90
22765;DHT22;11549;50.852;3.816;2022-08-19T02:30:44;19.20;99.90
22765;DHT22;11549;50.852;3.816;2022-08-19T02:33:12;19.20;99.90
22765;DHT22;11549;50.852;3.816;2022-08-19T02:35:41;19.10;99.90
22765;DHT22;11549;50.852;3.816;2022-08-19T02:38:10;19.10;99.90
22765;DHT22;11549;50.852;3.816;2022-08-19T02:40:58;19.00;99.90
22765;DHT22;11549;50.852;3.816;2022-08-19T02:43:28;19.00;99.90
22765;DHT22;11549;50.852;3.816;2022-08-19T02:46:00;19.00;99.90
22765;DHT22;11549;50.852;3.816;2022-08-19T02:48:29;19.00;99.90
22765;DHT22;11549;50.852;3.816;2022-08-19T02:50:59;19.00;99.90
22765;DHT22;11549;50.852;3.816;2022-08-19T02:53:28;19.00;99.90
22765;DHT22;11549;50.852;3.816;2022-08-19T02:55:58;18.80;99.90
22765;DHT22;11549;50.852;3.816;2022-08-19T02:58:26;18.90;99.90
22765;DHT22;11549;50.852;3.816;2022-08-19T03:00:56;18.80;99.90
22765;DHT22;11549;50.852;3.816;2022-08-19T03:03:25;18.80;99.90
22765;DHT22;11549;50.852;3.816;2022-08-19T03:06:04;18.70;99.90
22765;DHT22;11549;50.852;3.816;2022-08-19T03:08:32;18.70;99.90
22765;DHT22;11549;50.852;3.816;2022-08-19T03:11:03;18.70;99.90
22765;DHT22;11549;50.852;3.816;2022-08-19T03:13:32;18.60;99.90
22765;DHT22;11549;50.852;3.816;2022-08-19T03:16:04;18.60;99.90
22765;DHT22;11549;50.852;3.816;2022-08-19T03:18:32;18.60;99.90
22765;DHT22;11549;50.852;3.816;2022-08-19T03:21:01;18.60;99.90
22765;DHT22;11549;50.852;3.816;2022-08-19T03:23:29;18.60;99.90
22765;DHT22;11549;50.852;3.816;2022-08-19T03:25:58;18.60;99.90
22765;DHT22;11549;50.852;3.816;2022-08-19T03:28:45;18.60;99.90
22765;DHT22;11549;50.852;3.816;2022-08-19T03:31:26;18.60;99.90
22765;DHT22;11549;50.852;3.816;2022-08-19T03:34:12;18.60;99.90
22765;DHT22;11549;50.852;3.816;2022-08-19T03:36:41;18.60;99.90
22765;DHT22;11549;50.852;3.816;2022-08-19T03:39:11;18.50;99.90
22765;DHT22;11549;50.852;3.816;2022-08-19T03:41:41;18.50;99.90
22765;DHT22;11549;50.852;3.816;2022-08-19T03:44:13;18.50;99.90
22765;DHT22;11549;50.852;3.816;2022-08-19T03:46:45;18.50;99.90
22765;DHT22;11549;50.852;3.816;2022-08-19T03:49:14;18.50;99.90
22765;DHT22;11549;50.852;3.816;2022-08-19T03:51:46;18.50;99.90
22765;DHT22;11549;50.852;3.816;2022-08-19T03:54:17;18.40;99.90
22765;DHT22;11549;50.852;3.816;2022-08-19T03:56:47;18.40;99.90
22765;DHT22;11549;50.852;3.816;2022-08-19T03:59:21;18.40;99.90
22765;DHT22;11549;50.852;3.816;2022-08-19T04:01:53;18.50;99.90
22765;DHT22;11549;50.852;3.816;2022-08-19T04:04:23;18.50;99.90
22765;DHT22;11549;50.852;3.816;2022-08-19T04:06:55;18.50;99.90
22765;DHT22;11549;50.852;3.816;2022-08-19T04:09:24;18.50;99.90
22765;DHT22;11549;50.852;3.816;2022-08-19T04:11:56;18.50;99.90
22765;DHT22;11549;50.852;3.816;2022-08-19T04:14:28;18.40;99.90
22765;DHT22;11549;50.852;3.816;2022-08-19T04:16:58;18.40;99.90
22765;DHT22;11549;50.852;3.816;2022-08-19T04:19:29;18.40;99.90
22765;DHT22;11549;50.852;3.816;2022-08-19T04:21:57;18.40;99.90
22765;DHT22;11549;50.852;3.816;2022-08-19T04:24:26;18.40;99.90
22765;DHT22;11549;50.852;3.816;2022-08-19T04:26:54;18.40;99.90
22765;DHT22;11549;50.852;3.816;2022-08-19T04:29:25;18.30;99.90
22765;DHT22;11549;50.852;3.816;2022-08-19T04:31:55;18.40;99.90
22765;DHT22;11549;50.852;3.816;2022-08-19T04:34:26;18.30;99.90
22765;DHT22;11549;50.852;3.816;2022-08-19T04:36:58;18.30;99.90
22765;DHT22;11549;50.852;3.816;2022-08-19T04:39:29;18.30;99.90
22765;DHT22;11549;50.852;3.816;2022-08-19T04:42:12;18.30;99.90
22765;DHT22;11549;50.852;3.816;2022-08-19T04:44:59;18.20;99.90
22765;DHT22;11549;50.852;3.816;2022-08-19T04:47:31;18.30;99.90
22765;DHT22;11549;50.852;3.816;2022-08-19T04:50:19;18.30;99.90
22765;DHT22;11549;50.852;3.816;2022-08-19T04:52:50;18.30;99.90
22765;DHT22;11549;50.852;3.816;2022-08-19T04:55:20;18.30;99.90
22765;DHT22;11549;50.852;3.816;2022-08-19T04:57:48;18.30;99.90
22765;DHT22;11549;50.852;3.816;2022-08-19T05:00:19;18.40;99.90
22765;DHT22;11549;50.852;3.816;2022-08-19T05:02:47;18.40;99.90
22765;DHT22;11549;50.852;3.816;2022-08-19T05:05:16;18.40;99.90
22765;DHT22;11549;50.852;3.816;2022-08-19T05:07:45;18.40;99.90
22765;DHT22;11549;50.852;3.816;2022-08-19T05:10:13;18.40;99.90
22765;DHT22;11549;50.852;3.816;2022-08-19T05:12:41;18.40;99.90
22765;DHT22;11549;50.852;3.816;2022-08-19T05:15:10;18.40;99.90
22765;DHT22;11549;50.852;3.816;2022-08-19T05:17:40;18.40;99.90
22765;DHT22;11549;50.852;3.816;2022-08-19T05:20:29;18.40;99.90
22765;DHT22;11549;50.852;3.816;2022-08-19T05:23:14;18.60;99.90
22765;DHT22;11549;50.852;3.816;2022-08-19T05:25:49;18.50;99.90
22765;DHT22;11549;50.852;3.816;2022-08-19T05:28:18;18.50;99.90
22765;DHT22;11549;50.852;3.816;2022-08-19T05:30:47;18.60;99.90
22765;DHT22;11549;50.852;3.816;2022-08-19T05:33:19;18.70;99.90
22765;DHT22;11549;50.852;3.816;2022-08-19T05:35:48;18.70;99.90
22765;DHT22;11549;50.852;3.816;2022-08-19T05:38:17;18.90;99.90
22765;DHT22;11549;50.852;3.816;2022-08-19T05:40:45;19.10;99.90
22765;DHT22;11549;50.852;3.816;2022-08-19T05:43:15;19.10;99.90
22765;DHT22;11549;50.852;3.816;2022-08-19T05:45:44;19.30;99.90
22765;DHT22;11549;50.852;3.816;2022-08-19T05:48:13;19.50;99.90
22765;DHT22;11549;50.852;3.816;2022-08-19T05:50:43;19.50;99.90
22765;DHT22;11549;50.852;3.816;2022-08-19T05:53:12;19.50;99.90
22765;DHT22;11549;50.852;3.816;2022-08-19T05:55:41;19.60;99.90
22765;DHT22;11549;50.852;3.816;2022-08-19T05:58:09;19.70;99.90
22765;DHT22;11549;50.852;3.816;2022-08-19T06:00:38;19.70;99.90
22765;DHT22;11549;50.852;3.816;2022-08-19T06:03:07;19.80;99.90
22765;DHT22;11549;50.852;3.816;2022-08-19T06:05:38;19.80;99.90
22765;DHT22;11549;50.852;3.816;2022-08-19T06:08:19;19.70;99.90
22765;DHT22;11549;50.852;3.816;2022-08-19T06:11:13;19.80;99.90
22765;DHT22;11549;50.852;3.816;2022-08-19T06:13:43;20.10;99.90
22765;DHT22;11549;50.852;3.816;2022-08-19T06:16:11;20.50;99.90
22765;DHT22;11549;50.852;3.816;2022-08-19T06:18:50;20.90;99.90
22765;DHT22;11549;50.852;3.816;2022-08-19T06:21:19;21.10;99.90
22765;DHT22;11549;50.852;3.816;2022-08-19T06:23:50;21.20;99.90
22765;DHT22;11549;50.852;3.816;2022-08-19T06:26:19;21.20;99.90
22765;DHT22;11549;50.852;3.816;2022-08-19T06:28:48;21.10;99.90
22765;DHT22;11549;50.852;3.816;2022-08-19T06:31:19;21.10;99.90
22765;DHT22;11549;50.852;3.816;2022-08-19T06:33:48;21.10;99.90
22765;DHT22;11549;50.852;3.816;2022-08-19T06:36:19;21.10;99.90
22765;DHT22;11549;50.852;3.816;2022-08-19T06:38:53;21.00;99.90
22765;DHT22;11549;50.852;3.816;2022-08-19T06:41:21;21.00;99.90
22765;DHT22;11549;50.852;3.816;2022-08-19T06:43:49;21.10;99.90
22765;DHT22;11549;50.852;3.816;2022-08-19T06:46:22;21.10;99.90
22765;DHT22;11549;50.852;3.816;2022-08-19T06:48:51;21.20;99.90
22765;DHT22;11549;50.852;3.816;2022-08-19T06:51:21;21.20;99.90
22765;DHT22;11549;50.852;3.816;2022-08-19T06:53:53;21.20;99.90
22765;DHT22;11549;50.852;3.816;2022-08-19T06:56:25;21.20;99.90
22765;DHT22;11549;50.852;3.816;2022-08-19T06:58:57;21.10;99.90
22765;DHT22;11549;50.852;3.816;2022-08-19T07:01:27;21.10;99.90
22765;DHT22;11549;50.852;3.816;2022-08-19T07:03:55;21.20;99.90
22765;DHT22;11549;50.852;3.816;2022-08-19T07:06:24;21.00;99.90
22765;DHT22;11549;50.852;3.816;2022-08-19T07:09:13;21.10;99.90
22765;DHT22;11549;50.852;3.816;2022-08-19T07:11:45;21.10;99.90
22765;DHT22;11549;50.852;3.816;2022-08-19T07:14:16;21.20;99.90
22765;DHT22;11549;50.852;3.816;2022-08-19T07:16:47;21.20;99.90
22765;DHT22;11549;50.852;3.816;2022-08-19T07:19:18;21.30;99.90
22765;DHT22;11549;50.852;3.816;2022-08-19T07:21:49;21.20;99.90
22765;DHT22;11549;50.852;3.816;2022-08-19T07:24:20;21.20;99.90
22765;DHT22;11549;50.852;3.816;2022-08-19T07:26:52;21.30;99.90
22765;DHT22;11549;50.852;3.816;2022-08-19T07:29:21;21.30;99.90
22765;DHT22;11549;50.852;3.816;2022-08-19T07:31:54;21.30;99.90
22765;DHT22;11549;50.852;3.816;2022-08-19T07:34:26;21.30;99.90
22765;DHT22;11549;50.852;3.816;2022-08-19T07:36:56;21.30;99.90
22765;DHT22;11549;50.852;3.816;2022-08-19T07:39:29;21.30;99.90
22765;DHT22;11549;50.852;3.816;2022-08-19T07:42:00;21.40;99.90
22765;DHT22;11549;50.852;3.816;2022-08-19T07:44:29;21.30;99.90
22765;DHT22;11549;50.852;3.816;2022-08-19T07:46:57;21.40;99.90
22765;DHT22;11549;50.852;3.816;2022-08-19T07:49:27;21.40;99.90
22765;DHT22;11549;50.852;3.816;2022-08-19T07:51:59;21.40;99.90
22765;DHT22;11549;50.852;3.816;2022-08-19T07:54:32;21.50;99.90
22765;DHT22;11549;50.852;3.816;2022-08-19T07:57:03;21.80;99.90
22765;DHT22;11549;50.852;3.816;2022-08-19T07:59:32;21.90;99.90
22765;DHT22;11549;50.852;3.816;2022-08-19T08:02:01;22.00;99.90
22765;DHT22;11549;50.852;3.816;2022-08-19T08:04:30;21.90;99.90
22765;DHT22;11549;50.852;3.816;2022-08-19T08:07:16;22.00;99.90
22765;DHT22;11549;50.852;3.816;2022-08-19T08:10:07;22.20;99.90
22765;DHT22;11549;50.852;3.816;2022-08-19T08:12:47;22.20;99.90
22765;DHT22;11549;50.852;3.816;2022-08-19T08:15:36;22.20;99.90
22765;DHT22;11549;50.852;3.816;2022-08-19T08:18:09;22.10;99.90
22765;DHT22;11549;50.852;3.816;2022-08-19T08:20:40;22.20;99.90
22765;DHT22;11549;50.852;3.816;2022-08-19T08:23:09;22.30;99.90
22765;DHT22;11549;50.852;3.816;2022-08-19T08:25:56;22.20;99.90
22765;DHT22;11549;50.852;3.816;2022-08-19T08:28:26;22.40;99.90
22765;DHT22;11549;50.852;3.816;2022-08-19T08:30:57;22.30;99.90
22765;DHT22;11549;50.852;3.816;2022-08-19T08:33:28;22.30;99.90
22765;DHT22;11549;50.852;3.816;2022-08-19T08:36:01;22.30;99.90
22765;DHT22;11549;50.852;3.816;2022-08-19T08:38:30;22.50;99.90
22765;DHT22;11549;50.852;3.816;2022-08-19T08:41:13;22.60;99.90
22765;DHT22;11549;50.852;3.816;2022-08-19T08:43:49;22.60;99.90
22765;DHT22;11549;50.852;3.816;2022-08-19T08:46:22;22.60;99.90
22765;DHT22;11549;50.852;3.816;2022-08-19T08:49:02;22.60;99.90
22765;DHT22;11549;50.852;3.816;2022-08-19T08:51:40;22.60;99.90
22765;DHT22;11549;50.852;3.816;2022-08-19T08:54:16;22.70;99.90
22765;DHT22;11549;50.852;3.816;2022-08-19T08:56:49;22.80;99.90
22765;DHT22;11549;50.852;3.816;2022-08-19T08:59:22;22.80;99.90
22765;DHT22;11549;50.852;3.816;2022-08-19T09:01:52;22.80;99.90
22765;DHT22;11549;50.852;3.816;2022-08-19T09:04:21;22.80;99.90
22765;DHT22;11549;50.852;3.816;2022-08-19T09:06:54;22.90;99.90
22765;DHT22;11549;50.852;3.816;2022-08-19T09:09:29;22.80;99.90
22765;DHT22;11549;50.852;3.816;2022-08-19T09:12:06;22.70;99.90
22765;DHT22;11549;50.852;3.816;2022-08-19T09:14:43;22.70;99.90
22765;DHT22;11549;50.852;3.816;2022-08-19T09:17:17;22.70;99.90
22765;DHT22;11549;50.852;3.816;2022-08-19T09:19:52;22.70;99.90
22765;DHT22;11549;50.852;3.816;2022-08-19T09:22:21;22.60;99.90
22765;DHT22;11549;50.852;3.816;2022-08-19T09:24:53;22.50;99.90
22765;DHT22;11549;50.852;3.816;2022-08-19T09:27:24;22.60;99.90
22765;DHT22;11549;50.852;3.816;2022-08-19T09:30:12;22.60;99.90
22765;DHT22;11549;50.852;3.816;2022-08-19T09:32:42;22.70;99.90
22765;DHT22;11549;50.852;3.816;2022-08-19T09:35:19;22.80;99.90
22765;DHT22;11549;50.852;3.816;2022-08-19T09:37:50;22.70;99.90
22765;DHT22;11549;50.852;3.816;2022-08-19T09:40:26;22.70;99.90
22765;DHT22;11549;50.852;3.816;2022-08-19T09:42:58;22.70;99.90
22765;DHT22;11549;50.852;3.816;2022-08-19T09:45:35;22.80;99.90
22765;DHT22;11549;50.852;3.816;2022-08-19T09:48:04;22.90;99.90
22765;DHT22;11549;50.852;3.816;2022-08-19T09:50:35;23.00;99.90
22765;DHT22;11549;50.852;3.816;2022-08-19T09:53:18;23.20;99.90
22765;DHT22;11549;50.852;3.816;2022-08-19T09:55:46;23.20;99.90
22765;DHT22;11549;50.852;3.816;2022-08-19T09:58:16;23.20;99.90
22765;DHT22;11549;50.852;3.816;2022-08-19T10:00:50;23.10;99.90
22765;DHT22;11549;50.852;3.816;2022-08-19T10:03:19;23.10;99.90
22765;DHT22;11549;50.852;3.816;2022-08-19T10:05:57;23.10;99.90
22765;DHT22;11549;50.852;3.816;2022-08-19T10:08:27;23.20;99.90
22765;DHT22;11549;50.852;3.816;2022-08-19T10:10:56;23.30;99.90
22765;DHT22;11549;50.852;3.816;2022-08-19T10:13:46;23.30;99.90
22765;DHT22;11549;50.852;3.816;2022-08-19T10:16:19;23.50;99.90
22765;DHT22;11549;50.852;3.816;2022-08-19T10:18:56;23.70;99.90
22765;DHT22;11549;50.852;3.816;2022-08-19T10:21:27;23.90;99.90
22765;DHT22;11549;50.852;3.816;2022-08-19T10:24:00;24.00;99.90
22765;DHT22;11549;50.852;3.816;2022-08-19T10:26:32;23.90;99.90
22765;DHT22;11549;50.852;3.816;2022-08-19T10:29:04;23.90;99.90
22765;DHT22;11549;50.852;3.816;2022-08-19T10:31:35;24.00;99.90
22765;DHT22;11549;50.852;3.816;2022-08-19T10:34:23;24.10;99.90
22765;DHT22;11549;50.852;3.816;2022-08-19T10:36:55;24.10;99.90
22765;DHT22;11549;50.852;3.816;2022-08-19T10:39:28;24.10;99.90
22765;DHT22;11549;50.852;3.816;2022-08-19T10:42:07;24.10;99.90
22765;DHT22;11549;50.852;3.816;2022-08-19T10:44:39;24.10;99.90
22765;DHT22;11549;50.852;3.816;2022-08-19T10:47:08;24.10;99.90
22765;DHT22;11549;50.852;3.816;2022-08-19T10:49:50;24.20;99.90
22765;DHT22;11549;50.852;3.816;2022-08-19T10:52:38;24.10;99.90
22765;DHT22;11549;50.852;3.816;2022-08-19T10:55:17;23.90;99.90
22765;DHT22;11549;50.852;3.816;2022-08-19T10:58:03;24.00;99.90
22765;DHT22;11549;50.852;3.816;2022-08-19T11:00:35;24.00;99.90
22765;DHT22;11549;50.852;3.816;2022-08-19T11:03:04;24.00;99.90
22765;DHT22;11549;50.852;3.816;2022-08-19T11:05:35;24.10;99.90
22765;DHT22;11549;50.852;3.816;2022-08-19T11:08:06;24.10;99.90
22765;DHT22;11549;50.852;3.816;2022-08-19T11:10:49;24.10;99.90
22765;DHT22;11549;50.852;3.816;2022-08-19T11:13:20;24.10;99.90
22765;DHT22;11549;50.852;3.816;2022-08-19T11:15:58;24.20;99.90
22765;DHT22;11549;50.852;3.816;2022-08-19T11:18:33;24.20;99.90
22765;DHT22;11549;50.852;3.816;2022-08-19T11:21:07;24.30;99.90
22765;DHT22;11549;50.852;3.816;2022-08-19T11:23:36;24.20;99.90
22765;DHT22;11549;50.852;3.816;2022-08-19T11:26:04;24.30;99.90
22765;DHT22;11549;50.852;3.816;2022-08-19T11:28:33;24.30;99.90
22765;DHT22;11549;50.852;3.816;2022-08-19T11:31:03;24.30;99.90
22765;DHT22;11549;50.852;3.816;2022-08-19T11:33:31;24.40;99.90
22765;DHT22;11549;50.852;3.816;2022-08-19T11:36:00;24.60;99.90
22765;DHT22;11549;50.852;3.816;2022-08-19T11:38:29;24.70;99.90
22765;DHT22;11549;50.852;3.816;2022-08-19T11:40:59;24.80;99.90
22765;DHT22;11549;50.852;3.816;2022-08-19T11:43:28;24.90;99.90
22765;DHT22;11549;50.852;3.816;2022-08-19T11:46:06;25.00;99.90
22765;DHT22;11549;50.852;3.816;2022-08-19T11:48:35;24.90;99.90
22765;DHT22;11549;50.852;3.816;2022-08-19T11:51:05;24.90;99.90
22765;DHT22;11549;50.852;3.816;2022-08-19T11:53:34;24.80;99.90
22765;DHT22;11549;50.852;3.816;2022-08-19T11:56:03;24.80;99.90
22765;DHT22;11549;50.852;3.816;2022-08-19T11:58:32;24.90;99.90
22765;DHT22;11549;50.852;3.816;2022-08-19T12:01:01;25.00;99.90
22765;DHT22;11549;50.852;3.816;2022-08-19T12:03:30;25.20;99.90
22765;DHT22;11549;50.852;3.816;2022-08-19T12:06:02;25.50;99.90
22765;DHT22;11549;50.852;3.816;2022-08-19T12:08:30;25.60;99.90
22765;DHT22;11549;50.852;3.816;2022-08-19T12:10:59;25.60;99.90
22765;DHT22;11549;50.852;3.816;2022-08-19T12:13:29;25.50;99.90
22765;DHT22;11549;50.852;3.816;2022-08-19T12:15:57;25.60;99.90
22765;DHT22;11549;50.852;3.816;2022-08-19T12:18:26;25.50;99.90
22765;DHT22;11549;50.852;3.816;2022-08-19T12:20:56;25.40;99.90
22765;DHT22;11549;50.852;3.816;2022-08-19T12:23:24;25.10;99.90
22765;DHT22;11549;50.852;3.816;2022-08-19T12:25:52;25.10;99.90
22765;DHT22;11549;50.852;3.816;2022-08-19T12:28:23;25.10;99.90
22765;DHT22;11549;50.852;3.816;2022-08-19T12:30:52;24.90;99.90
22765;DHT22;11549;50.852;3.816;2022-08-19T12:33:20;24.80;99.90
22765;DHT22;11549;50.852;3.816;2022-08-19T12:35:52;24.70;99.90
22765;DHT22;11549;50.852;3.816;2022-08-19T12:38:22;24.70;99.90
22765;DHT22;11549;50.852;3.816;2022-08-19T12:40:50;24.70;99.90
22765;DHT22;11549;50.852;3.816;2022-08-19T12:43:25;24.70;99.90
22765;DHT22;11549;50.852;3.816;2022-08-19T12:45:53;24.80;99.90
22765;DHT22;11549;50.852;3.816;2022-08-19T12:48:22;24.80;99.90
22765;DHT22;11549;50.852;3.816;2022-08-19T12:51:05;25.00;99.90
22765;DHT22;11549;50.852;3.816;2022-08-19T12:53:35;25.10;99.90
22765;DHT22;11549;50.852;3.816;2022-08-19T12:56:05;25.00;99.90
22765;DHT22;11549;50.852;3.816;2022-08-19T12:58:38;25.10;99.90
22765;DHT22;11549;50.852;3.816;2022-08-19T13:01:17;25.10;99.90
22765;DHT22;11549;50.852;3.816;2022-08-19T13:03:49;25.00;99.90
22765;DHT22;11549;50.852;3.816;2022-08-19T13:06:19;25.10;99.90
22765;DHT22;11549;50.852;3.816;2022-08-19T13:08:48;25.10;99.90
22765;DHT22;11549;50.852;3.816;2022-08-19T13:11:19;25.00;99.90
22765;DHT22;11549;50.852;3.816;2022-08-19T13:13:52;24.70;99.90
22765;DHT22;11549;50.852;3.816;2022-08-19T13:16:22;24.60;99.90
22765;DHT22;11549;50.852;3.816;2022-08-19T13:18:50;24.70;99.90
22765;DHT22;11549;50.852;3.816;2022-08-19T13:21:20;24.70;99.90
22765;DHT22;11549;50.852;3.816;2022-08-19T13:23:51;24.60;99.90
22765;DHT22;11549;50.852;3.816;2022-08-19T13:26:20;24.50;99.90
22765;DHT22;11549;50.852;3.816;2022-08-19T13:28:51;24.50;99.90
22765;DHT22;11549;50.852;3.816;2022-08-19T13:31:40;24.40;99.90
22765;DHT22;11549;50.852;3.816;2022-08-19T13:34:29;24.40;99.90
22765;DHT22;11549;50.852;3.816;2022-08-19T13:36:59;24.30;99.90
22765;DHT22;11549;50.852;3.816;2022-08-19T13:39:31;24.30;99.90
22765;DHT22;11549;50.852;3.816;2022-08-19T13:42:01;24.50;99.90
22765;DHT22;11549;50.852;3.816;2022-08-19T13:44:31;24.60;99.90
22765;DHT22;11549;50.852;3.816;2022-08-19T13:47:01;24.70;99.90
22765;DHT22;11549;50.852;3.816;2022-08-19T13:49:34;24.80;99.90
22765;DHT22;11549;50.852;3.816;2022-08-19T13:52:04;24.80;99.90
22765;DHT22;11549;50.852;3.816;2022-08-19T13:54:34;24.90;99.90
22765;DHT22;11549;50.852;3.816;2022-08-19T13:57:02;24.90;99.90
22765;DHT22;11549;50.852;3.816;2022-08-19T13:59:30;25.30;99.90
22765;DHT22;11549;50.852;3.816;2022-08-19T14:02:00;25.60;99.90
22765;DHT22;11549;50.852;3.816;2022-08-19T14:04:28;26.00;99.90
22765;DHT22;11549;50.852;3.816;2022-08-19T14:06:57;26.40;99.90
22765;DHT22;11549;50.852;3.816;2022-08-19T14:09:28;26.80;99.90
22765;DHT22;11549;50.852;3.816;2022-08-19T14:11:58;27.10;99.90
22765;DHT22;11549;50.852;3.816;2022-08-19T14:14:26;27.30;99.90
22765;DHT22;11549;50.852;3.816;2022-08-19T14:16:55;27.30;99.90
22765;DHT22;11549;50.852;3.816;2022-08-19T14:19:24;27.10;99.90
22765;DHT22;11549;50.852;3.816;2022-08-19T14:21:56;26.90;99.90
22765;DHT22;11549;50.852;3.816;2022-08-19T14:24:25;26.70;99.90
22765;DHT22;11549;50.852;3.816;2022-08-19T14:26:53;26.50;99.90
22765;DHT22;11549;50.852;3.816;2022-08-19T14:29:23;26.40;99.90
22765;DHT22;11549;50.852;3.816;2022-08-19T14:31:51;26.10;99.90
22765;DHT22;11549;50.852;3.816;2022-08-19T14:34:19;25.80;99.90
22765;DHT22;11549;50.852;3.816;2022-08-19T14:36:49;25.40;99.90
22765;DHT22;11549;50.852;3.816;2022-08-19T14:39:17;25.20;99.90
22765;DHT22;11549;50.852;3.816;2022-08-19T14:41:45;25.10;99.90
22765;DHT22;11549;50.852;3.816;2022-08-19T14:44:13;25.10;99.90
22765;DHT22;11549;50.852;3.816;2022-08-19T14:46:44;25.00;99.90
22765;DHT22;11549;50.852;3.816;2022-08-19T14:49:15;24.80;99.90
22765;DHT22;11549;50.852;3.816;2022-08-19T14:51:44;24.80;99.90
22765;DHT22;11549;50.852;3.816;2022-08-19T14:54:13;25.00;99.90
22765;DHT22;11549;50.852;3.816;2022-08-19T14:56:41;25.40;99.90
22765;DHT22;11549;50.852;3.816;2022-08-19T14:59:10;25.60;99.90
22765;DHT22;11549;50.852;3.816;2022-08-19T15:01:38;25.70;99.90
22765;DHT22;11549;50.852;3.816;2022-08-19T15:04:08;25.80;99.90
22765;DHT22;11549;50.852;3.816;2022-08-19T15:06:37;25.80;99.90
22765;DHT22;11549;50.852;3.816;2022-08-19T15:09:05;25.90;99.90
22765;DHT22;11549;50.852;3.816;2022-08-19T15:11:34;26.00;99.90
22765;DHT22;11549;50.852;3.816;2022-08-19T15:14:02;26.00;99.90
22765;DHT22;11549;50.852;3.816;2022-08-19T15:16:32;26.10;99.90
22765;DHT22;11549;50.852;3.816;2022-08-19T15:19:01;26.20;99.90
22765;DHT22;11549;50.852;3.816;2022-08-19T15:21:31;26.10;99.90
22765;DHT22;11549;50.852;3.816;2022-08-19T15:24:00;26.00;99.90
22765;DHT22;11549;50.852;3.816;2022-08-19T15:26:29;25.90;99.90
22765;DHT22;11549;50.852;3.816;2022-08-19T15:28:59;25.70;99.90
22765;DHT22;11549;50.852;3.816;2022-08-19T15:31:28;25.60;99.90
22765;DHT22;11549;50.852;3.816;2022-08-19T15:34:04;25.50;99.90
22765;DHT22;11549;50.852;3.816;2022-08-19T15:36:35;25.30;99.90
22765;DHT22;11549;50.852;3.816;2022-08-19T15:39:04;25.30;99.90
22765;DHT22;11549;50.852;3.816;2022-08-19T15:41:33;25.20;99.90
22765;DHT22;11549;50.852;3.816;2022-08-19T15:44:07;25.20;99.90
22765;DHT22;11549;50.852;3.816;2022-08-19T15:46:38;25.30;99.90
22765;DHT22;11549;50.852;3.816;2022-08-19T15:49:08;25.30;99.90
22765;DHT22;11549;50.852;3.816;2022-08-19T15:51:39;25.10;99.90
22765;DHT22;11549;50.852;3.816;2022-08-19T15:54:11;25.00;99.90
22765;DHT22;11549;50.852;3.816;2022-08-19T15:56:40;25.00;99.90
22765;DHT22;11549;50.852;3.816;2022-08-19T15:59:26;25.10;99.90